Tres Piedras, New Mexico
Current Conditions -  °F | °C
As of 9:35 PM on Sunday 28 Dec 2014 (Local Time) from KSKX Reporting Station
Overcast Overcast  
Wind Chill:   Ceiling: 6000
Heat Index: 12°   Visibility: 10mi
Dew Point:   Wind: 6mph
Humidity: 62%   Direction: 120°ESE
Pressure: 30.03"   Gusts: NA
Location:  36.65°N, 105.96°W
Report Text: KSKX 290435Z AUTO 12005KT 10SM OVC060 M11/M17 A3003 RMK AO1
Loading
Personal Weather Stations






























Interactive Weather Map New forecast layout! Learn more

10-Day Weather Forecast

Advertisements
Track Severe Weather on mobile